الصفحة الرئيسية
METAR-TAF:

METAR-TAF

مطار :

موسكو-شيريميتييفو, روسيا

مطار شيريميتييفو الدولي

دائرة عرض: 55-59N, خط طول: 037-30E, ارتفاع: 190 متر

مراقبة الطقس الحالي

تاريخ ووقت الإصدار 40 دقيقة قبل الساعة 08:00UTC
ريح 6 عقدة من الغرب/الشمال الغربي
درجة الحرارة -11°درجة مئوية
الرطوبة 78%
ضغط 1025 hPa
الرؤية 10 كم أو أكثر
غيوم متفرقة على ارتفاع 1500 قدم

METAR: UUEE 220800Z 30003MPS 9999 SCT015 M11/M14 Q1025 R24L/410351 NOSIG

زمن: 11:40 (08:40 UTC)

توقعات

تاريخ ووقت الإصدار 38 دقيقة قبل الساعة 08:02UTC
التوقعات صالحة من22 الساعة 09 UTC إلى 23 الساعة 09 UTC
ريح 6 عقدة من الشمال الغربي
الرؤية 10 كم أو أكثر
غيوم متفرقة على ارتفاع 1500 قدم

TAF: UUEE 220802Z 2209/2309 31003MPS 9999 SCT015 TXM09/2212Z TNM20/2303Z

أرصاد الطقس والتوقعات من أكثر من 4000 مطار (تقارير الطقس للمطار METAR والتنبؤ بالطقس بالمطارTAF).

المحطات المتاحة هي النقط الصفراء والحمراء على الخريطة.

حرك المؤشر فوق النقطة لمعرفة اسم المحطة.

ثم انقر لمعرفة أرصاد وتوقعات الطقس.

لتغيير الخارطة: اضغط على الأزرار الخضراء مع رمز الصليب الأسود للتكبير. على الزر الأخضر مع شرطة للتصغير، أو على الأسهم الخضراء للخرائط المجاورة.


METAR-TAF: